Flight Track Log - Related Links

Times and Time Zones

All times are in EDT time to prevent confusion due to time zone crossing. See the KAP169 flight status page for this flight to view local times or setup timezone preferences in your user account.

Time Position Orientation Groundspeed Altitude Reporting Facility
EDT Latitude Longitude Course Direction KTS MPH feet Rate Location/Type
Fri 09:11:40 AM 42.3833 -71.0167 360° North 106 122 500  Level KA90
Fri 09:12:12 AM 42.3833 -71.0167 360° North 104 120 800 581 Climbing KA90
Fri 09:13:13 AM 42.4167 -71.0167 360° North 105 121 1,400 595 Climbing KA90
Fri 09:14:13 AM 42.4500 -71.0167 360° North 107 123 2,000 600 Climbing KA90
Fri 09:15:13 AM 42.4833 -71.0167 360° North 108 124 2,600 500 Climbing KA90
Fri 09:16:13 AM 42.5167 -71.0167 360° North 113 130 3,000 400 Climbing KA90
Fri 09:17:13 AM 42.5500 -71.0000 20° North 126 145 3,400 450 Climbing KA90
Fri 09:18:13 AM 42.5833 -71.0000 360° North 124 143 3,900 513 Climbing KA90
Fri 09:19:10 AM 42.6167 -70.9833 20° North 122 140 4,400 513 Climbing KA90
Fri 09:20:10 AM 42.6500 -70.9833 360° North 122 140 4,900 466 Climbing KA90
Fri 09:21:06 AM 42.6667 -70.9667 36° Northeast 129 148 5,300 462 Climbing KA90
Fri 09:22:07 AM 42.7000 -70.9333 36° Northeast 129 148 5,800 496 Climbing KA90
Fri 09:23:07 AM 42.7167 -70.9000 56° Northeast 130 150 6,300 500 Climbing KA90
Fri 09:24:07 AM 42.7500 -70.8667 36° Northeast 133 153 6,800 350 Climbing KA90
Fri 09:25:07 AM 42.7833 -70.8167 48° Northeast 142 163 7,000 146 Climbing KA90
Fri 09:26:10 AM 42.8167 -70.7833 36° Northeast 159 183 7,100 49 Climbing KA90
Fri 09:27:10 AM 42.8500 -70.7333 48° Northeast 159 183 7,100  Level KA90
Fri 09:28:12 AM 42.8833 -70.7000 36° Northeast 156 180 7,100  Level KA90
Fri 09:29:16 AM 42.9167 -70.6500 48° Northeast 157 181 7,100  Level KA90
Fri 09:31:00 AM 42.9668 -70.5838 44° Northeast  Level Estimated
Fri 09:38:00 AM 43.1687 -70.3155 44° Northeast  Level Estimated
Fri 09:39:00 AM 43.1975 -70.2771 44° Northeast  Level Estimated
Fri 09:40:00 AM 43.2263 -70.2386 44° Northeast  Level Estimated
Fri 09:41:00 AM 43.2551 -70.2000 44° Northeast  Level Estimated
Fri 09:42:00 AM 43.2839 -70.1614 44° Northeast  Level Estimated
Fri 09:43:00 AM 43.3126 -70.1228 44° Northeast  Level Estimated
Fri 09:44:00 AM 43.3413 -70.0842 44° Northeast  Level Estimated
Fri 09:45:00 AM 43.3701 -70.0455 44° Northeast  Level Estimated
Fri 09:46:00 AM 43.3988 -70.0067 44° Northeast  Level Estimated
Fri 09:47:00 AM 43.4275 -69.9680 44° Northeast  Level Estimated
Fri 09:48:00 AM 43.4562 -69.9292 44° Northeast  Level Estimated
Fri 09:49:00 AM 43.4848 -69.8903 44° Northeast  Level Estimated
Fri 09:50:00 AM 43.5135 -69.8514 45° Northeast  Level Estimated
Fri 09:51:00 AM 43.5421 -69.8125 45° Northeast  Level Estimated
Fri 09:52:00 AM 43.5708 -69.7736 45° Northeast  Level Estimated
Fri 09:53:00 AM 43.5994 -69.7346 45° Northeast  Level Estimated
Fri 09:54:00 AM 43.6280 -69.6956 45° Northeast  Level Estimated
Fri 09:55:00 AM 43.6566 -69.6565 45° Northeast  Level Estimated
Fri 09:56:00 AM 43.6851 -69.6174 45° Northeast  Level Estimated
Fri 09:57:00 AM 43.7137 -69.5783 45° Northeast  Level Estimated
Fri 09:58:00 AM 43.7422 -69.5391 45° Northeast  Level Estimated
Fri 09:59:00 AM 43.7708 -69.4999 45° Northeast  Level Estimated
Fri 10:00:00 AM 43.7993 -69.4606 45° Northeast  Level Estimated
Fri 10:01:00 AM 43.8278 -69.4214 45° Northeast  Level Estimated
Fri 10:02:00 AM 43.8563 -69.3820 45° Northeast  Level Estimated
Fri 10:03:00 AM 43.8848 -69.3427 45° Northeast  Level Estimated
Fri 10:04:00 AM 43.9133 -69.3033 45° Northeast  Level Estimated
Fri 10:05:00 AM 43.9417 -69.2639 45° Northeast  Level Estimated
Fri 10:06:00 AM 43.9702 -69.2244 45° Northeast  Level Estimated

Login

Don't have an account? Register now (free) for customized features, flight alerts, and more!